Time;durP1;ratioP1;P1;durP2;ratioP2;P2;SDS_P1;SDS_P2;PMS_P1;PMS_P2;Temp;Humidity;BMP_temperature;BMP_pressure;BME280_temperature;BME280_humidity;BME280_pressure;Samples;Min_cycle;Max_cycle;Signal;HPM_P1;HPM_P2
2023/09/02 00:02:20;;;;;;;2.00;1.80;;;;;;;-141.26;100.00;62741.75;5063446;28;20313;-67
2023/09/02 00:04:49;;;;;;;2.73;1.90;;;;;;;-141.26;100.00;62741.75;5063382;28;20220;-67
2023/09/02 00:07:16;;;;;;;1.70;1.60;;;;;;;-141.26;100.00;62741.75;5063620;28;20229;-67
2023/09/02 00:09:44;;;;;;;1.97;1.87;;;;;;;-141.26;100.00;62741.75;5063394;28;20283;-67
2023/09/02 00:12:11;;;;;;;2.50;2.30;;;;;;;-141.26;100.00;62741.75;5063435;28;20256;-67
2023/09/02 00:14:38;;;;;;;2.10;1.90;;;;;;;-141.26;100.00;62741.75;5081616;28;20218;-67
2023/09/02 00:17:05;;;;;;;1.77;1.63;;;;;;;-141.26;100.00;62741.75;5063412;28;20218;-67
2023/09/02 00:19:32;;;;;;;1.87;1.77;;;;;;;-141.26;100.00;62741.75;5063257;28;20275;-67
2023/09/02 00:22:01;;;;;;;1.90;1.70;;;;;;;-141.26;100.00;62741.75;5063258;28;20222;-67
2023/09/02 00:24:28;;;;;;;1.80;1.70;;;;;;;-141.26;100.00;62741.75;5082805;28;20217;-67
2023/09/02 00:26:55;;;;;;;1.93;1.50;;;;;;;-141.26;100.00;62741.75;5083263;28;20237;-67
2023/09/02 00:29:22;;;;;;;1.53;1.43;;;;;;;-141.26;100.00;62741.75;5066658;28;20230;-67
2023/09/02 00:31:49;;;;;;;3.10;1.67;;;;;;;-141.26;100.00;62741.75;5085084;28;20249;-67
2023/09/02 00:34:16;;;;;;;1.80;1.70;;;;;;;-141.26;100.00;62741.75;5084921;28;20214;-67
2023/09/02 00:36:43;;;;;;;1.73;1.63;;;;;;;-141.26;100.00;62741.75;5066517;28;20233;-67
2023/09/02 00:39:12;;;;;;;2.13;2.00;;;;;;;-141.26;100.00;62741.75;5066574;28;20222;-67
2023/09/02 00:41:46;;;;;;;3.17;1.80;;;;;;;-141.26;100.00;62741.75;5083386;28;20219;-67
2023/09/02 00:44:14;;;;;;;1.90;1.80;;;;;;;-141.26;100.00;62741.75;5066552;28;20217;-67
2023/09/02 00:46:42;;;;;;;1.80;1.67;;;;;;;-141.26;100.00;62741.75;5084918;28;20218;-67
2023/09/02 00:49:09;;;;;;;2.00;1.80;;;;;;;-141.26;100.00;62741.75;5083346;28;20233;-67
2023/09/02 00:51:36;;;;;;;1.60;1.50;;;;;;;-141.26;100.00;62741.75;5066342;28;20272;-67
2023/09/02 00:54:03;;;;;;;1.90;1.80;;;;;;;-141.26;100.00;62741.75;5066429;28;20309;-67
2023/09/02 00:56:33;;;;;;;1.80;1.70;;;;;;;-141.26;100.00;62741.75;5066077;28;20218;-67
2023/09/02 00:59:03;;;;;;;3.67;1.70;;;;;;;-141.26;100.00;62741.75;5066207;28;20224;-67
2023/09/02 01:01:33;;;;;;;1.70;1.60;;;;;;;-141.26;100.00;62741.75;5066475;28;20217;-67
2023/09/02 01:04:01;;;;;;;2.53;1.67;;;;;;;-141.26;100.00;62741.75;5066237;28;20276;-67
2023/09/02 01:06:29;;;;;;;1.80;1.70;;;;;;;-141.26;100.00;62741.75;5066118;28;20229;-67
2023/09/02 01:08:56;;;;;;;2.13;1.93;;;;;;;-141.26;100.00;62741.75;5066066;28;20237;-67
2023/09/02 01:11:23;;;;;;;1.90;1.70;;;;;;;-141.26;100.00;62741.75;5084325;28;20272;-67
2023/09/02 01:13:52;;;;;;;1.77;1.67;;;;;;;-141.26;100.00;62741.75;5066306;28;20232;-67
2023/09/02 01:16:19;;;;;;;2.43;1.87;;;;;;;-141.26;100.00;62741.75;5066013;28;20245;-67
2023/09/02 01:18:47;;;;;;;1.80;1.70;;;;;;;-141.26;100.00;62741.75;5065969;28;20231;-67
2023/09/02 01:21:40;;;;;;;2.00;1.90;;;;;;;-141.26;100.00;62741.75;5065968;28;20300;-67
2023/09/02 01:24:26;;;;;;;1.80;1.70;;;;;;;-141.26;100.00;62741.75;5065999;28;20222;-67
2023/09/02 01:27:12;;;;;;;1.77;1.67;;;;;;;-141.26;100.00;62741.75;5065092;28;20245;-67
2023/09/02 01:30:00;;;;;;;1.60;1.50;;;;;;;-141.26;100.00;62741.75;5065759;28;20224;-67
2023/09/02 01:32:33;;;;;;;1.73;1.63;;;;;;;-141.26;100.00;62741.75;5082762;28;20227;-67
2023/09/02 01:35:04;;;;;;;1.83;1.73;;;;;;;-141.26;100.00;62741.75;5082397;28;20261;-67
2023/09/02 01:37:33;;;;;;;1.80;1.70;;;;;;;-141.26;100.00;62741.75;5065965;28;20217;-67
2023/09/02 01:40:04;;;;;;;2.63;1.80;;;;;;;-141.26;100.00;62741.75;5065528;28;20241;-67
2023/09/02 01:42:33;;;;;;;1.73;1.63;;;;;;;-141.26;100.00;62741.75;5065709;28;20218;-67
2023/09/02 01:45:01;;;;;;;1.83;1.73;;;;;;;-141.26;100.00;62741.75;5083660;28;20304;-67
2023/09/02 01:47:30;;;;;;;2.10;1.50;;;;;;;-141.26;100.00;62741.75;5065570;28;20233;-67
2023/09/02 01:49:57;;;;;;;1.60;1.50;;;;;;;-141.26;100.00;62741.75;5065430;28;20260;-67
2023/09/02 01:52:25;;;;;;;1.10;1.10;;;;;;;-141.26;100.00;62741.75;5065328;28;20225;-67
2023/09/02 01:54:52;;;;;;;1.67;1.57;;;;;;;-141.26;100.00;62741.75;5065104;28;20251;-67
2023/09/02 01:57:19;;;;;;;1.83;1.40;;;;;;;-141.26;100.00;62741.75;5082303;28;20226;-67
2023/09/02 01:59:48;;;;;;;1.43;1.33;;;;;;;-141.26;100.00;62741.75;5065245;28;20268;-67
2023/09/02 02:02:16;;;;;;;2.03;1.57;;;;;;;-141.26;100.00;62741.75;5065307;28;20226;-67
2023/09/02 02:04:46;;;;;;;2.80;2.00;;;;;;;-141.26;100.00;62741.75;5065239;28;20265;-67
2023/09/02 02:07:15;;;;;;;1.60;1.50;;;;;;;-141.26;100.00;62741.75;5082122;28;20240;-67
2023/09/02 02:09:47;;;;;;;2.83;2.20;;;;;;;-141.26;100.00;62741.75;5081705;28;20237;-67
2023/09/02 02:12:15;;;;;;;2.73;2.10;;;;;;;-141.26;100.00;62741.75;5082110;28;20403;-67
2023/09/02 02:14:42;;;;;;;2.33;2.13;;;;;;;-141.26;100.00;62741.75;5081937;28;20312;-67
2023/09/02 02:17:11;;;;;;;2.20;2.00;;;;;;;-141.26;100.00;62741.75;5064930;28;20309;-67
2023/09/02 02:19:39;;;;;;;2.23;2.07;;;;;;;-141.26;100.00;62741.75;5081819;28;20270;-67
2023/09/02 02:22:07;;;;;;;2.03;1.93;;;;;;;-141.26;100.00;62741.75;5083146;28;20222;-67
2023/09/02 02:24:34;;;;;;;2.43;2.23;;;;;;;-141.26;100.00;62741.75;5081840;28;20223;-67
2023/09/02 02:27:01;;;;;;;2.30;2.10;;;;;;;-141.26;100.00;62741.75;5081517;28;20237;-67
2023/09/02 02:29:28;;;;;;;2.17;1.90;;;;;;;-141.26;100.00;62741.75;5064493;28;20242;-67
2023/09/02 02:31:56;;;;;;;2.67;2.00;;;;;;;-141.26;100.00;62741.75;5081584;28;20258;-67
2023/09/02 02:34:26;;;;;;;2.50;2.30;;;;;;;-141.26;100.00;62741.75;5064833;28;20222;-67
2023/09/02 02:36:53;;;;;;;3.43;2.20;;;;;;;-141.26;100.00;62741.75;5064655;28;20225;-67
2023/09/02 02:39:20;;;;;;;2.43;2.20;;;;;;;-141.26;100.00;62741.75;5081656;28;20218;-67
2023/09/02 02:41:47;;;;;;;1.80;1.70;;;;;;;-141.26;100.00;62741.75;5064541;28;20229;-67
2023/09/02 02:44:14;;;;;;;1.70;1.60;;;;;;;-141.26;100.00;62741.75;5064514;28;20276;-67
2023/09/02 02:46:41;;;;;;;2.00;1.83;;;;;;;-141.26;100.00;62741.75;5063675;28;20210;-67
2023/09/02 02:49:08;;;;;;;2.20;2.10;;;;;;;-141.26;100.00;62741.75;5064456;28;20264;-67
2023/09/02 02:51:37;;;;;;;3.27;1.97;;;;;;;-141.26;100.00;62741.75;5081225;28;20225;-67
2023/09/02 02:54:04;;;;;;;2.57;1.90;;;;;;;-141.26;100.00;62741.75;5064490;28;20242;-67
2023/09/02 02:56:31;;;;;;;3.07;2.10;;;;;;;-141.26;100.00;62741.75;5081201;28;20218;-67
2023/09/02 02:58:58;;;;;;;2.33;2.10;;;;;;;-141.26;100.00;62741.75;5064465;28;20222;-67
2023/09/02 03:01:27;;;;;;;1.93;1.80;;;;;;;-141.26;100.00;62741.75;5064270;28;20264;-67
2023/09/02 03:03:55;;;;;;;2.80;2.40;;;;;;;-141.26;100.00;62741.75;5081234;28;20268;-67
2023/09/02 03:06:23;;;;;;;2.10;2.00;;;;;;;-141.26;100.00;62741.75;5064211;28;20229;-67
2023/09/02 03:08:51;;;;;;;2.23;2.10;;;;;;;-141.26;100.00;62741.75;5081087;28;20219;-67
2023/09/02 03:11:18;;;;;;;2.17;1.80;;;;;;;-141.26;100.00;62741.75;5064152;28;20238;-67
2023/09/02 03:13:45;;;;;;;1.73;1.63;;;;;;;-141.26;100.00;62741.75;5064257;28;20223;-67
2023/09/02 03:16:18;;;;;;;2.27;2.07;;;;;;;-141.26;100.00;62741.75;5064134;28;20221;-67
2023/09/02 03:18:47;;;;;;;2.70;2.00;;;;;;;-141.26;100.00;62741.75;5063895;28;20321;-67
2023/09/02 03:21:14;;;;;;;2.30;2.10;;;;;;;-141.26;100.00;62741.75;5080848;28;20214;-67
2023/09/02 03:23:41;;;;;;;2.00;1.80;;;;;;;-141.26;100.00;62741.75;5080799;28;20228;-67
2023/09/02 03:26:12;;;;;;;2.73;2.00;;;;;;;-141.26;100.00;62741.75;5063120;28;20235;-67
2023/09/02 03:28:41;;;;;;;1.90;1.80;;;;;;;-141.26;100.00;62741.75;5064009;28;20278;-67
2023/09/02 03:31:10;;;;;;;2.03;1.93;;;;;;;-141.26;100.00;62741.75;5063994;28;20326;-67
2023/09/02 03:33:39;;;;;;;2.20;2.00;;;;;;;-141.26;100.00;62741.75;5063886;28;20289;-67
2023/09/02 03:36:08;;;;;;;3.50;1.97;;;;;;;-141.26;100.00;62741.75;5080562;28;20265;-67
2023/09/02 03:38:35;;;;;;;2.20;2.10;;;;;;;-141.26;100.00;62741.75;5063865;28;20219;-67
2023/09/02 03:41:17;;;;;;;2.27;2.10;;;;;;;-141.26;100.00;62741.75;5080473;28;20225;-67
2023/09/02 03:43:44;;;;;;;2.33;2.13;;;;;;;-141.26;100.00;62741.75;5080737;28;20275;-67
2023/09/02 03:46:11;;;;;;;2.73;2.20;;;;;;;-141.26;100.00;62741.75;5063744;28;20225;-67
2023/09/02 03:48:38;;;;;;;2.00;1.90;;;;;;;-141.26;100.00;62741.75;5064147;28;20230;-67
2023/09/02 03:51:11;;;;;;;2.67;2.43;;;;;;;-141.26;100.00;62741.75;5080273;28;20229;-67
2023/09/02 03:53:39;;;;;;;2.27;2.10;;;;;;;-141.26;100.00;62741.75;5080495;28;20225;-67
2023/09/02 03:56:07;;;;;;;3.67;2.50;;;;;;;-141.26;100.00;62741.75;5063462;28;20221;-67
2023/09/02 03:58:37;;;;;;;4.20;2.27;;;;;;;-141.26;100.00;62741.75;5063425;28;20272;-67
2023/09/02 04:01:05;;;;;;;2.70;2.50;;;;;;;-141.26;100.00;62741.75;5080512;28;20269;-67
2023/09/02 04:03:36;;;;;;;1.90;1.80;;;;;;;-141.26;100.00;62741.75;5063372;28;20217;-67
2023/09/02 04:06:05;;;;;;;2.23;2.03;;;;;;;-141.26;100.00;62741.75;5063492;28;20476;-67
2023/09/02 04:08:34;;;;;;;2.10;2.00;;;;;;;-141.26;100.00;62741.75;5063376;28;20217;-67
2023/09/02 04:11:02;;;;;;;2.50;2.20;;;;;;;-141.26;100.00;62741.75;5063290;28;20242;-67
2023/09/02 04:13:29;;;;;;;3.37;2.13;;;;;;;-141.26;100.00;62741.75;5080271;28;20230;-67
2023/09/02 04:16:02;;;;;;;2.67;2.47;;;;;;;-141.26;100.00;62741.75;5063422;28;20298;-67
2023/09/02 04:18:31;;;;;;;2.53;2.33;;;;;;;-141.26;100.00;62741.75;5080094;28;20277;-67
2023/09/02 04:21:01;;;;;;;3.13;2.13;;;;;;;-141.26;100.00;62741.75;5063423;28;20289;-67
2023/09/02 04:23:28;;;;;;;3.80;2.20;;;;;;;-141.26;100.00;62741.75;5080084;28;20238;-67
2023/09/02 04:25:57;;;;;;;2.50;2.00;;;;;;;-141.26;100.00;62741.75;5062934;28;20318;-67
2023/09/02 04:28:25;;;;;;;2.17;2.07;;;;;;;-141.26;100.00;62741.75;5063340;28;20230;-67
2023/09/02 04:30:56;;;;;;;3.43;2.20;;;;;;;-141.26;100.00;62741.75;5062998;28;20236;-67
2023/09/02 04:33:26;;;;;;;3.90;2.73;;;;;;;-141.26;100.00;62741.75;5063114;28;20234;-67
2023/09/02 04:35:54;;;;;;;3.73;2.70;;;;;;;-141.26;100.00;62741.75;5080050;28;20222;-66
2023/09/02 04:38:21;;;;;;;2.53;2.33;;;;;;;-141.26;100.00;62741.75;5063301;28;20345;-66
2023/09/02 04:40:53;;;;;;;2.50;2.30;;;;;;;-141.26;100.00;62741.75;5063165;28;20226;-66
2023/09/02 04:43:20;;;;;;;2.13;1.93;;;;;;;-141.26;100.00;62741.75;5063091;28;20218;-66
2023/09/02 04:45:49;;;;;;;2.40;2.20;;;;;;;-141.26;100.00;62741.75;5062986;28;20292;-67
2023/09/02 04:48:17;;;;;;;2.40;2.20;;;;;;;-141.26;100.00;62741.75;5062964;28;20225;-67
2023/09/02 04:50:53;;;;;;;2.00;1.90;;;;;;;-141.26;100.00;62741.75;5062971;28;20259;-67
2023/09/02 04:53:23;;;;;;;2.07;1.90;;;;;;;-141.26;100.00;62741.75;5063174;28;20306;-67
2023/09/02 04:55:51;;;;;;;2.40;2.20;;;;;;;-141.26;100.00;62741.75;5062795;28;20302;-67
2023/09/02 04:58:22;;;;;;;2.40;2.20;;;;;;;-141.26;100.00;62741.75;5079788;28;20209;-67
2023/09/02 05:00:52;;;;;;;2.27;2.07;;;;;;;-141.26;100.00;62741.75;5062784;28;20218;-67
2023/09/02 05:03:19;;;;;;;2.33;2.10;;;;;;;-141.26;100.00;62741.75;5062783;28;20221;-67
2023/09/02 05:05:50;;;;;;;2.63;2.33;;;;;;;-141.26;100.00;62741.75;5062782;28;20246;-67
2023/09/02 05:08:18;;;;;;;4.07;2.20;;;;;;;-141.26;100.00;62741.75;5079425;28;20258;-67
2023/09/02 05:10:46;;;;;;;2.63;2.40;;;;;;;-141.26;100.00;62741.75;5081086;28;20234;-67
2023/09/02 05:13:13;;;;;;;2.70;2.40;;;;;;;-141.26;100.00;62741.75;5083076;28;20308;-67
2023/09/02 05:15:40;;;;;;;2.30;2.10;;;;;;;-141.26;100.00;62741.75;5065943;28;20222;-67
2023/09/02 05:18:08;;;;;;;2.40;2.20;;;;;;;-141.26;100.00;62741.75;5065839;28;20223;-67
2023/09/02 05:20:40;;;;;;;2.80;2.60;;;;;;;-141.26;100.00;62741.75;5082946;28;20218;-67
2023/09/02 05:23:10;;;;;;;3.27;2.60;;;;;;;-141.26;100.00;62741.75;5066088;28;20296;-67
2023/09/02 05:25:37;;;;;;;2.80;2.43;;;;;;;-141.26;100.00;62741.75;5082557;28;20310;-67
2023/09/02 05:28:05;;;;;;;2.53;2.10;;;;;;;-141.26;100.00;62741.75;5065465;28;20250;-67
2023/09/02 05:30:35;;;;;;;2.40;2.20;;;;;;;-141.26;100.00;62741.75;5065543;28;20306;-67
2023/09/02 05:33:02;;;;;;;2.80;2.20;;;;;;;-141.26;100.00;62741.75;5083997;28;20222;-67
2023/09/02 05:35:30;;;;;;;2.67;2.47;;;;;;;-141.26;100.00;62741.75;5084121;28;20275;-67
2023/09/02 05:37:57;;;;;;;3.93;2.60;;;;;;;-141.26;100.00;62741.75;5065554;28;20228;-67
2023/09/02 05:40:26;;;;;;;3.20;2.90;;;;;;;-141.26;100.00;62741.75;5082469;28;20226;-67
2023/09/02 05:42:53;;;;;;;3.70;2.90;;;;;;;-141.26;100.00;62741.75;5065532;28;20220;-67
2023/09/02 05:45:20;;;;;;;3.10;2.80;;;;;;;-141.26;100.00;62741.75;5083915;28;20274;-67
2023/09/02 05:47:47;;;;;;;4.97;2.80;;;;;;;-141.26;100.00;62741.75;5065457;28;20305;-67
2023/09/02 05:50:14;;;;;;;4.13;2.87;;;;;;;-141.26;100.00;62741.75;5083759;28;20280;-67
2023/09/02 05:52:41;;;;;;;3.10;2.80;;;;;;;-141.26;100.00;62741.75;5065485;28;20233;-67
2023/09/02 05:55:09;;;;;;;2.93;2.73;;;;;;;-141.26;100.00;62741.75;5065422;28;20218;-67
2023/09/02 05:57:37;;;;;;;2.83;2.50;;;;;;;-141.26;100.00;62741.75;5065378;28;20314;-67
2023/09/02 06:00:06;;;;;;;3.37;2.97;;;;;;;-141.26;100.00;62741.75;5065093;28;20233;-67
2023/09/02 06:02:39;;;;;;;3.43;3.10;;;;;;;-141.26;100.00;62741.75;5080654;28;20333;-67
2023/09/02 06:05:07;;;;;;;3.13;2.93;;;;;;;-141.26;100.00;62741.75;5065234;28;20223;-67
2023/09/02 06:07:34;;;;;;;3.43;2.90;;;;;;;-141.26;100.00;62741.75;5065206;28;20217;-67
2023/09/02 06:10:01;;;;;;;3.03;2.83;;;;;;;-141.26;100.00;62741.75;5064907;28;20229;-67
2023/09/02 06:12:29;;;;;;;2.90;2.70;;;;;;;-141.26;100.00;62741.75;5065068;28;20244;-67
2023/09/02 06:14:58;;;;;;;3.70;2.87;;;;;;;-141.26;100.00;62741.75;5064995;28;20214;-67
2023/09/02 06:17:28;;;;;;;3.33;2.80;;;;;;;-141.26;100.00;62741.75;5081829;28;20218;-67
2023/09/02 06:19:56;;;;;;;3.57;3.00;;;;;;;-141.26;100.00;62741.75;5065091;28;20228;-67
2023/09/02 06:22:23;;;;;;;3.17;2.77;;;;;;;-141.26;100.00;62741.75;5082096;28;20247;-67
2023/09/02 06:24:50;;;;;;;3.87;3.10;;;;;;;-141.26;100.00;62741.75;5064851;28;20210;-67
2023/09/02 06:27:17;;;;;;;3.57;3.10;;;;;;;-141.26;100.00;62741.75;5064268;28;20237;-67
2023/09/02 06:29:44;;;;;;;3.23;3.00;;;;;;;-141.26;100.00;62741.75;5083051;28;20220;-67
2023/09/02 06:32:13;;;;;;;4.80;3.20;;;;;;;-141.26;100.00;62741.75;5064783;28;20237;-67
2023/09/02 06:34:40;;;;;;;3.00;2.80;;;;;;;-141.26;100.00;62741.75;5081683;28;20214;-67
2023/09/02 06:37:08;;;;;;;2.67;2.47;;;;;;;-141.26;100.00;62741.75;5064558;28;20221;-67
2023/09/02 06:39:35;;;;;;;3.23;3.00;;;;;;;-141.26;100.00;62741.75;5064651;28;20253;-67
2023/09/02 06:42:02;;;;;;;3.10;2.70;;;;;;;-141.26;100.00;62741.75;5064634;28;20304;-67
2023/09/02 06:44:33;;;;;;;4.23;3.07;;;;;;;-141.26;100.00;62741.75;5081401;28;20225;-67
2023/09/02 06:47:00;;;;;;;2.87;2.67;;;;;;;-141.26;100.00;62741.75;5081324;28;20278;-67
2023/09/02 06:49:32;;;;;;;3.17;2.93;;;;;;;-141.26;100.00;62741.75;5064401;28;20214;-67
2023/09/02 06:51:59;;;;;;;2.90;2.60;;;;;;;-141.26;100.00;62741.75;5064383;28;20229;-67
2023/09/02 06:54:26;;;;;;;3.23;2.97;;;;;;;-141.26;100.00;62741.75;5081334;28;20226;-67
2023/09/02 06:56:53;;;;;;;2.90;2.57;;;;;;;-141.26;100.00;62741.75;5064327;28;20214;-67
2023/09/02 06:59:20;;;;;;;3.50;2.73;;;;;;;-141.26;100.00;62741.75;5064248;28;20228;-67
2023/09/02 07:01:47;;;;;;;4.87;2.70;;;;;;;-141.26;100.00;62741.75;5064371;28;20218;-67
2023/09/02 07:04:14;;;;;;;3.43;2.50;;;;;;;-141.26;100.00;62741.75;5081204;28;20230;-67
2023/09/02 07:06:43;;;;;;;3.83;2.80;;;;;;;-141.26;100.00;62741.75;5064203;28;20227;-67
2023/09/02 07:09:11;;;;;;;3.37;2.40;;;;;;;-141.26;100.00;62741.75;5064168;28;20226;-67
2023/09/02 07:11:38;;;;;;;2.73;2.53;;;;;;;-141.26;100.00;62741.75;5080848;28;20230;-67
2023/09/02 07:14:05;;;;;;;2.90;2.67;;;;;;;-141.26;100.00;62741.75;5080885;28;20270;-67
2023/09/02 07:16:32;;;;;;;3.67;2.80;;;;;;;-141.26;100.00;62741.75;5080975;28;20215;-67
2023/09/02 07:19:03;;;;;;;2.90;2.70;;;;;;;-141.26;100.00;62741.75;5080903;28;20255;-67
2023/09/02 07:21:30;;;;;;;3.53;3.23;;;;;;;-141.26;100.00;62741.75;5064045;28;20289;-67
2023/09/02 07:23:59;;;;;;;3.10;2.80;;;;;;;-141.26;100.00;62741.75;5063881;28;20268;-67
2023/09/02 07:26:28;;;;;;;2.83;2.60;;;;;;;-141.26;100.00;62741.75;5059917;28;20234;-67
2023/09/02 07:28:56;;;;;;;3.10;2.80;;;;;;;-141.26;100.00;62741.75;5060571;28;20253;-67
2023/09/02 07:31:23;;;;;;;2.97;2.73;;;;;;;-141.26;100.00;62741.75;5060446;28;20238;-67
2023/09/02 07:33:50;;;;;;;2.90;2.70;;;;;;;-141.26;100.00;62741.75;5061745;28;20222;-67
2023/09/02 07:36:17;;;;;;;2.90;2.60;;;;;;;-141.26;100.00;62741.75;5060531;28;20214;-67
2023/09/02 07:38:45;;;;;;;3.20;2.90;;;;;;;-141.26;100.00;62741.75;5061964;28;20249;-67
2023/09/02 07:41:14;;;;;;;3.13;2.80;;;;;;;-141.26;100.00;62741.75;5061763;28;20226;-67
2023/09/02 07:43:41;;;;;;;3.23;2.90;;;;;;;-141.26;100.00;62741.75;5060367;28;20230;-67
2023/09/02 07:46:11;;;;;;;3.17;2.63;;;;;;;-141.26;100.00;62741.75;5061792;28;20233;-67
2023/09/02 07:48:38;;;;;;;3.03;2.60;;;;;;;-141.26;100.00;62741.75;5061670;28;20214;-67
2023/09/02 07:51:05;;;;;;;4.37;2.33;;;;;;;-141.26;100.00;62741.75;5060192;28;20230;-67
2023/09/02 07:53:32;;;;;;;2.53;2.33;;;;;;;-141.26;100.00;62741.75;5061793;28;20252;-67
2023/09/02 07:55:59;;;;;;;3.00;2.47;;;;;;;-141.26;100.00;62741.75;5061703;28;20230;-67
2023/09/02 07:58:28;;;;;;;3.33;2.37;;;;;;;-141.26;100.00;62741.75;5060264;28;20234;-67
2023/09/02 08:00:56;;;;;;;2.57;2.37;;;;;;;-141.26;100.00;62741.75;5060246;28;20309;-67
2023/09/02 08:03:23;;;;;;;2.40;2.20;;;;;;;-141.26;100.00;62741.75;5060186;28;20223;-67
2023/09/02 08:05:50;;;;;;;3.40;2.23;;;;;;;-141.26;100.00;62741.75;5061759;28;20265;-67
2023/09/02 08:08:18;;;;;;;2.40;2.20;;;;;;;-141.26;100.00;62741.75;5076974;28;20222;-67
2023/09/02 08:10:45;;;;;;;2.30;2.10;;;;;;;-141.26;100.00;62741.75;5059868;28;20223;-67
2023/09/02 08:13:12;;;;;;;2.73;2.17;;;;;;;-141.26;100.00;62741.75;5060012;28;20242;-67
2023/09/02 08:15:41;;;;;;;2.77;2.47;;;;;;;-141.26;100.00;62741.75;5060145;28;20278;-67
2023/09/02 08:18:08;;;;;;;3.20;2.20;;;;;;;-141.26;100.00;62741.75;5061528;28;20250;-67
2023/09/02 08:20:35;;;;;;;4.03;2.20;;;;;;;-141.26;100.00;62741.75;5060132;28;20211;-67
2023/09/02 08:23:02;;;;;;;2.40;2.20;;;;;;;-141.26;100.00;62741.75;5059938;28;20219;-67
2023/09/02 08:25:31;;;;;;;2.37;2.00;;;;;;;-141.26;100.00;62741.75;5059761;28;20229;-67
2023/09/02 08:27:58;;;;;;;2.53;2.10;;;;;;;-141.26;100.00;62741.75;5059640;28;20235;-67
2023/09/02 08:30:25;;;;;;;4.07;2.33;;;;;;;-141.26;100.00;62741.75;5059876;28;20214;-67
2023/09/02 08:32:54;;;;;;;3.17;2.07;;;;;;;-141.26;100.00;62741.75;5059834;28;20290;-67
2023/09/02 08:35:21;;;;;;;2.90;2.20;;;;;;;-141.26;100.00;62741.75;5059689;28;20214;-67
2023/09/02 08:37:48;;;;;;;5.27;2.40;;;;;;;-141.26;100.00;62741.75;5059906;28;20246;-67
2023/09/02 08:40:15;;;;;;;2.57;2.37;;;;;;;-141.26;100.00;62741.75;5059638;28;20223;-67
2023/09/02 08:42:43;;;;;;;4.43;2.40;;;;;;;-141.26;100.00;62741.75;5076588;28;20215;-67
2023/09/02 08:45:11;;;;;;;3.63;2.43;;;;;;;-141.26;100.00;62741.75;5061810;28;20223;-67
2023/09/02 08:47:41;;;;;;;2.67;2.20;;;;;;;-141.26;100.00;62741.75;5063271;28;20269;-67
2023/09/02 08:50:11;;;;;;;4.40;2.47;;;;;;;-141.26;100.00;62741.75;5064555;28;20222;-67
2023/09/02 08:52:40;;;;;;;4.70;2.20;;;;;;;-141.26;100.00;62741.75;5063024;28;20526;-67
2023/09/02 08:55:09;;;;;;;3.90;2.00;;;;;;;-141.26;100.00;62741.75;5062857;28;20219;-67
2023/09/02 08:57:38;;;;;;;2.40;2.20;;;;;;;-141.26;100.00;62741.75;5063015;28;20265;-67
2023/09/02 09:00:07;;;;;;;3.27;2.10;;;;;;;-141.26;100.00;62741.75;5063018;28;20219;-67
2023/09/02 09:02:35;;;;;;;2.13;1.90;;;;;;;-141.26;100.00;62741.75;5063024;28;20234;-67
2023/09/02 09:05:04;;;;;;;3.57;2.20;;;;;;;-141.26;100.00;62741.75;5062838;28;20261;-67
2023/09/02 09:07:33;;;;;;;3.13;1.93;;;;;;;-141.26;100.00;62741.75;5062811;28;20219;-67
2023/09/02 09:10:00;;;;;;;2.10;2.00;;;;;;;-141.26;100.00;62741.75;5062661;28;20315;-67
2023/09/02 09:12:31;;;;;;;2.33;2.00;;;;;;;-141.26;100.00;62741.75;5062634;28;20330;-67
2023/09/02 09:15:00;;;;;;;2.07;1.90;;;;;;;-141.26;100.00;62741.75;5064399;28;20292;-67
2023/09/02 09:17:27;;;;;;;2.40;1.90;;;;;;;-141.26;100.00;62741.75;5062688;28;20306;-67
2023/09/02 09:19:57;;;;;;;2.07;1.87;;;;;;;-141.26;100.00;62741.75;5079486;28;20207;-67
2023/09/02 09:22:24;;;;;;;2.20;2.00;;;;;;;-141.26;100.00;62741.75;5063998;28;20207;-67
2023/09/02 09:24:53;;;;;;;2.97;1.93;;;;;;;-141.26;100.00;62741.75;5062587;28;20226;-67
2023/09/02 09:27:21;;;;;;;2.93;1.83;;;;;;;-141.26;100.00;62741.75;5061846;28;20242;-67
2023/09/02 09:29:48;;;;;;;2.50;1.93;;;;;;;-141.26;100.00;62741.75;5062430;28;20305;-67
2023/09/02 09:32:18;;;;;;;2.57;2.17;;;;;;;-141.26;100.00;62741.75;5063921;28;20231;-67
2023/09/02 09:34:45;;;;;;;2.27;2.00;;;;;;;-141.26;100.00;62741.75;5062404;28;20239;-67
2023/09/02 09:37:14;;;;;;;2.53;2.03;;;;;;;-141.26;100.00;62741.75;5063636;28;20223;-67
2023/09/02 09:39:42;;;;;;;2.30;1.90;;;;;;;-141.26;100.00;62741.75;5062437;28;20223;-67
2023/09/02 09:42:13;;;;;;;2.77;1.83;;;;;;;-141.26;100.00;62741.75;5062226;28;20277;-67
2023/09/02 09:44:54;;;;;;;2.37;1.77;;;;;;;-141.26;100.00;62741.75;5062326;28;20222;-67
2023/09/02 09:47:21;;;;;;;2.87;2.00;;;;;;;-141.26;100.00;62741.75;5062247;28;20225;-67
2023/09/02 09:49:50;;;;;;;1.83;1.73;;;;;;;-141.26;100.00;62741.75;5062297;28;20265;-67
2023/09/02 09:52:21;;;;;;;2.80;1.83;;;;;;;-141.26;100.00;62741.75;5061846;28;20229;-67
2023/09/02 09:54:49;;;;;;;2.13;1.70;;;;;;;-141.26;100.00;62741.75;5062143;28;20298;-67
2023/09/02 09:57:29;;;;;;;2.43;1.83;;;;;;;-141.26;100.00;62741.75;5063221;28;20219;-67
2023/09/02 09:59:57;;;;;;;2.13;1.90;;;;;;;-141.26;100.00;62741.75;5063704;28;20210;-66
2023/09/02 10:02:24;;;;;;;3.47;2.00;;;;;;;-141.26;100.00;62741.75;5062001;28;20273;-66
2023/09/02 10:04:53;;;;;;;2.00;1.90;;;;;;;-141.26;100.00;62741.75;5061834;28;20317;-67
2023/09/02 10:07:24;;;;;;;2.17;1.97;;;;;;;-141.26;100.00;62741.75;5061794;28;20286;-67
2023/09/02 10:09:51;;;;;;;2.07;1.87;;;;;;;-141.26;100.00;62741.75;5061816;28;20214;-67
2023/09/02 10:12:20;;;;;;;2.17;1.97;;;;;;;-141.26;100.00;62741.75;5063156;28;20231;-67
2023/09/02 10:14:48;;;;;;;2.00;1.90;;;;;;;-141.26;100.00;62741.75;5061757;28;20265;-67
2023/09/02 10:17:17;;;;;;;3.87;1.90;;;;;;;-141.26;100.00;62741.75;5061518;28;20349;-67
2023/09/02 10:19:47;;;;;;;2.37;2.10;;;;;;;-141.26;100.00;62741.75;5061700;28;20269;-67
2023/09/02 10:22:18;;;;;;;2.07;1.97;;;;;;;-141.26;100.00;62741.75;5063175;28;20218;-67
2023/09/02 10:24:52;;;;;;;2.23;2.03;;;;;;;-141.26;100.00;62741.75;5078323;28;20229;-67
2023/09/02 10:27:24;;;;;;;2.20;2.00;;;;;;;-141.26;100.00;62741.75;5060851;28;20242;-67
2023/09/02 10:29:56;;;;;;;2.37;2.10;;;;;;;-141.26;100.00;62741.75;5061478;28;20309;-67
2023/09/02 10:32:26;;;;;;;3.20;2.33;;;;;;;-141.26;100.00;62741.75;5061501;28;20328;-67
2023/09/02 10:35:00;;;;;;;2.10;1.90;;;;;;;-141.26;100.00;62741.75;5061320;28;20254;-67
2023/09/02 10:37:32;;;;;;;1.93;1.60;;;;;;;-141.26;100.00;62741.75;5061392;28;20211;-67
2023/09/02 10:40:05;;;;;;;3.27;1.97;;;;;;;-141.26;100.00;62741.75;5062941;28;20211;-67
2023/09/02 10:42:35;;;;;;;2.73;2.10;;;;;;;-141.26;100.00;62741.75;5062838;28;20215;-67
2023/09/02 10:45:02;;;;;;;1.80;1.70;;;;;;;-141.26;100.00;62741.75;5078134;28;20225;-67
2023/09/02 10:47:29;;;;;;;2.17;1.80;;;;;;;-141.26;100.00;62741.75;5061279;28;20227;-67
2023/09/02 10:49:57;;;;;;;2.37;1.80;;;;;;;-141.26;100.00;62741.75;5061205;28;20227;-67
2023/09/02 10:52:24;;;;;;;3.80;1.83;;;;;;;-141.26;100.00;62741.75;5060981;28;20304;-67
2023/09/02 10:55:02;;;;;;;2.30;1.93;;;;;;;-141.26;100.00;62741.75;5078123;28;20301;-67
2023/09/02 10:57:30;;;;;;;1.93;1.63;;;;;;;-141.26;100.00;62741.75;5062561;28;20219;-67
2023/09/02 11:00:15;;;;;;;1.90;1.60;;;;;;;-141.26;100.00;62741.75;5061001;28;20222;-67
2023/09/02 11:02:44;;;;;;;2.23;2.03;;;;;;;-141.26;100.00;62741.75;5060935;28;20269;-67
2023/09/02 11:05:11;;;;;;;2.10;1.90;;;;;;;-141.26;100.00;62741.75;5062094;28;20310;-67
2023/09/02 11:07:39;;;;;;;2.13;1.90;;;;;;;-141.26;100.00;62741.75;5077208;28;20246;-67
2023/09/02 11:10:09;;;;;;;2.95;1.83;;;;;;;-141.26;100.00;62741.75;5062407;28;20227;-67
2023/09/02 11:12:56;;;;;;;2.17;1.77;;;;;;;-141.26;100.00;62741.75;5060766;28;20250;-67
2023/09/02 11:15:25;;;;;;;1.70;1.40;;;;;;;-141.26;100.00;62741.75;5062362;28;20231;-67
2023/09/02 11:17:52;;;;;;;1.60;1.42;;;;;;;-141.26;100.00;62741.75;5060917;28;20226;-67